Orbital elements of COSMOS 970 DEB
| Launched | 20 December 1977 |
| Flight ended | – |
| Launch site | Tyuratam Missile and Space Center, Kazakhstan (Also known as Baikonur Cosmodrome) |
| Owner | Commonwealth of Independent States (former USSR) |
| NORAD ID | 10579 |
| Date fetched |
Epoch osculation |
Inc. [°] |
Ecc. | RA asc node [hr] |
Arg Peri. [°] |
Mean anom [°] |
Mean motion [rev/day] |
Abs. mag |
| Date fetched |
Epoch osculation |
Inc. [°] |
Ecc. | RA asc node [hr] |
Arg Peri. [°] |
Mean anom [°] |
Mean motion [rev/day] |
Abs. mag |
| 2026 May 03 17:57 | 2026 Apr 30 12:30:56 | 65.6467 | 0.00516 | 15.4643 | 149.8935 | 296.3727 | 13.33332 | – |
| 2026 May 02 17:57 | 2026 Apr 30 12:30:56 | 65.6467 | 0.00516 | 15.4643 | 149.8935 | 296.3727 | 13.33332 | – |
| 2026 May 01 17:56 | 2026 Apr 30 12:30:56 | 65.6467 | 0.00516 | 15.4643 | 149.8935 | 296.3727 | 13.33332 | – |
| 2026 Apr 30 17:56 | 2026 Apr 30 12:30:56 | 65.6467 | 0.00516 | 15.4643 | 149.8935 | 296.3727 | 13.33332 | – |
| 2026 Apr 29 17:57 | 2026 Apr 24 12:25:26 | 65.6466 | 0.00520 | 16.3913 | 152.4747 | 296.3727 | 13.33332 | – |
| 2026 Apr 28 17:56 | 2026 Apr 24 12:25:26 | 65.6466 | 0.00520 | 16.3913 | 152.4747 | 296.3727 | 13.33332 | – |
| 2026 Apr 27 17:58 | 2026 Apr 24 12:25:26 | 65.6466 | 0.00520 | 16.3913 | 152.4747 | 296.3727 | 13.33332 | – |
| 2026 Apr 26 17:58 | 2026 Apr 24 12:25:26 | 65.6466 | 0.00520 | 16.3913 | 152.4747 | 296.3727 | 13.33332 | – |
| 2026 Apr 25 17:58 | 2026 Apr 24 12:25:26 | 65.6466 | 0.00520 | 16.3913 | 152.4747 | 296.3727 | 13.33332 | – |
| 2026 Apr 24 17:59 | 2026 Apr 24 12:25:26 | 65.6466 | 0.00520 | 16.3913 | 152.4747 | 296.3727 | 13.33332 | – |
| 2026 Apr 23 17:57 | 2026 Apr 19 11:46:10 | 65.6462 | 0.00524 | 17.1676 | 154.6539 | 296.3727 | 13.33332 | – |
| 2026 Apr 22 17:57 | 2026 Apr 19 11:46:10 | 65.6462 | 0.00524 | 17.1676 | 154.6539 | 296.3727 | 13.33332 | – |
| 2026 Apr 21 17:57 | 2026 Apr 19 11:46:10 | 65.6462 | 0.00524 | 17.1676 | 154.6539 | 296.3727 | 13.33332 | – |
| 2026 Apr 20 17:57 | 2026 Apr 19 11:46:10 | 65.6462 | 0.00524 | 17.1676 | 154.6539 | 296.3727 | 13.33332 | – |
| 2026 Apr 19 17:58 | 2026 Apr 19 11:46:10 | 65.6462 | 0.00524 | 17.1676 | 154.6539 | 296.3727 | 13.33332 | – |
| 2026 Apr 18 17:56 | 2026 Apr 12 19:47:33 | 65.6457 | 0.00528 | 18.1968 | 157.5471 | 296.3727 | 13.33332 | – |
| 2026 Apr 16 17:57 | 2026 Apr 12 19:47:33 | 65.6457 | 0.00528 | 18.1968 | 157.5471 | 296.3727 | 13.33332 | – |
| 2026 Apr 14 17:57 | 2026 Apr 12 19:47:33 | 65.6457 | 0.00528 | 18.1968 | 157.5471 | 296.3727 | 13.33332 | – |
| 2026 Apr 13 17:57 | 2026 Apr 12 19:47:33 | 65.6457 | 0.00528 | 18.1968 | 157.5471 | 296.3727 | 13.33332 | – |
| 2026 Apr 12 17:57 | 2026 Apr 08 14:45:02 | 65.6459 | 0.00530 | 18.8470 | 159.3725 | 296.3727 | 13.33332 | – |
| 2026 Apr 11 17:57 | 2026 Apr 08 14:45:02 | 65.6459 | 0.00530 | 18.8470 | 159.3725 | 296.3727 | 13.33332 | – |
| 2026 Apr 10 17:58 | 2026 Apr 08 14:45:02 | 65.6459 | 0.00530 | 18.8470 | 159.3725 | 296.3727 | 13.33332 | – |
| 2026 Apr 09 18:01 | 2026 Apr 08 14:45:02 | 65.6459 | 0.00530 | 18.8470 | 159.3725 | 296.3727 | 13.33332 | – |
| 2026 Apr 08 17:57 | 2026 Apr 08 14:45:02 | 65.6459 | 0.00530 | 18.8470 | 159.3725 | 296.3727 | 13.33332 | – |
| 2026 Apr 07 17:57 | 2026 Apr 01 01:25:32 | 65.6465 | 0.00535 | 20.0136 | 162.7516 | 296.3727 | 13.33332 | – |
| 2026 Apr 06 17:57 | 2026 Apr 01 01:25:32 | 65.6465 | 0.00535 | 20.0136 | 162.7516 | 296.3727 | 13.33332 | – |